sensor_id;sensor_type;location;lat;lon;timestamp;P1;durP1;ratioP1;P2;durP2;ratioP2
73120;SDS011;61307;49.628;-1.624;2023-08-01T00:01:02;6.28;;;2.85;;
73120;SDS011;61307;49.628;-1.624;2023-08-01T00:03:31;4.07;;;2.08;;
73120;SDS011;61307;49.628;-1.624;2023-08-01T00:05:58;5.18;;;2.00;;
73120;SDS011;61307;49.628;-1.624;2023-08-01T00:08:26;3.97;;;2.13;;
73120;SDS011;61307;49.628;-1.624;2023-08-01T00:10:54;4.13;;;2.22;;
73120;SDS011;61307;49.628;-1.624;2023-08-01T00:13:21;4.25;;;2.33;;
73120;SDS011;61307;49.628;-1.624;2023-08-01T00:15:49;6.95;;;2.72;;
73120;SDS011;61307;49.628;-1.624;2023-08-01T00:18:17;3.67;;;2.00;;
73120;SDS011;61307;49.628;-1.624;2023-08-01T00:20:45;4.78;;;2.20;;
73120;SDS011;61307;49.628;-1.624;2023-08-01T00:23:13;5.72;;;2.60;;
73120;SDS011;61307;49.628;-1.624;2023-08-01T00:25:41;4.03;;;2.55;;
73120;SDS011;61307;49.628;-1.624;2023-08-01T00:28:08;8.23;;;2.33;;
73120;SDS011;61307;49.628;-1.624;2023-08-01T00:30:36;6.32;;;2.38;;
73120;SDS011;61307;49.628;-1.624;2023-08-01T00:33:03;4.15;;;2.35;;
73120;SDS011;61307;49.628;-1.624;2023-08-01T00:35:31;5.22;;;2.42;;
73120;SDS011;61307;49.628;-1.624;2023-08-01T00:38:00;5.88;;;2.60;;
73120;SDS011;61307;49.628;-1.624;2023-08-01T00:40:29;5.45;;;2.42;;
73120;SDS011;61307;49.628;-1.624;2023-08-01T00:42:57;8.00;;;2.60;;
73120;SDS011;61307;49.628;-1.624;2023-08-01T00:48:44;6.38;;;2.70;;
73120;SDS011;61307;49.628;-1.624;2023-08-01T00:51:12;5.70;;;2.47;;
73120;SDS011;61307;49.628;-1.624;2023-08-01T00:53:42;5.28;;;2.50;;
73120;SDS011;61307;49.628;-1.624;2023-08-01T00:56:11;4.40;;;2.45;;
73120;SDS011;61307;49.628;-1.624;2023-08-01T00:58:38;5.50;;;2.40;;
73120;SDS011;61307;49.628;-1.624;2023-08-01T01:01:06;5.55;;;2.50;;
73120;SDS011;61307;49.628;-1.624;2023-08-01T01:03:34;5.57;;;2.50;;
73120;SDS011;61307;49.628;-1.624;2023-08-01T01:06:06;7.70;;;2.55;;
73120;SDS011;61307;49.628;-1.624;2023-08-01T01:08:38;7.38;;;2.58;;
73120;SDS011;61307;49.628;-1.624;2023-08-01T01:11:07;5.82;;;2.55;;
73120;SDS011;61307;49.628;-1.624;2023-08-01T01:13:35;4.45;;;2.50;;
73120;SDS011;61307;49.628;-1.624;2023-08-01T01:16:03;6.43;;;2.72;;
73120;SDS011;61307;49.628;-1.624;2023-08-01T01:18:30;5.05;;;2.65;;
73120;SDS011;61307;49.628;-1.624;2023-08-01T01:21:00;8.07;;;2.70;;
73120;SDS011;61307;49.628;-1.624;2023-08-01T01:23:27;6.40;;;2.53;;
73120;SDS011;61307;49.628;-1.624;2023-08-01T01:25:56;6.85;;;2.78;;
73120;SDS011;61307;49.628;-1.624;2023-08-01T01:28:25;5.88;;;3.03;;
73120;SDS011;61307;49.628;-1.624;2023-08-01T01:30:53;7.95;;;2.95;;
73120;SDS011;61307;49.628;-1.624;2023-08-01T01:33:26;7.50;;;2.95;;
73120;SDS011;61307;49.628;-1.624;2023-08-01T01:35:54;5.25;;;2.42;;
73120;SDS011;61307;49.628;-1.624;2023-08-01T01:38:23;6.20;;;2.70;;
73120;SDS011;61307;49.628;-1.624;2023-08-01T01:40:50;8.80;;;2.65;;
73120;SDS011;61307;49.628;-1.624;2023-08-01T01:43:18;7.07;;;2.88;;
73120;SDS011;61307;49.628;-1.624;2023-08-01T01:45:45;7.85;;;2.90;;
73120;SDS011;61307;49.628;-1.624;2023-08-01T01:48:13;8.90;;;2.88;;
73120;SDS011;61307;49.628;-1.624;2023-08-01T01:50:40;7.38;;;3.20;;
73120;SDS011;61307;49.628;-1.624;2023-08-01T01:53:08;8.32;;;2.90;;
73120;SDS011;61307;49.628;-1.624;2023-08-01T01:55:37;9.75;;;2.78;;
73120;SDS011;61307;49.628;-1.624;2023-08-01T01:58:05;5.88;;;2.80;;
73120;SDS011;61307;49.628;-1.624;2023-08-01T02:00:33;8.00;;;2.50;;
73120;SDS011;61307;49.628;-1.624;2023-08-01T02:03:00;7.43;;;2.50;;
73120;SDS011;61307;49.628;-1.624;2023-08-01T02:05:28;9.35;;;3.08;;
73120;SDS011;61307;49.628;-1.624;2023-08-01T02:07:56;7.63;;;2.85;;
73120;SDS011;61307;49.628;-1.624;2023-08-01T02:10:23;6.35;;;2.45;;
73120;SDS011;61307;49.628;-1.624;2023-08-01T02:12:52;8.98;;;2.90;;
73120;SDS011;61307;49.628;-1.624;2023-08-01T02:15:20;7.25;;;2.97;;
73120;SDS011;61307;49.628;-1.624;2023-08-01T02:17:47;7.35;;;2.80;;
73120;SDS011;61307;49.628;-1.624;2023-08-01T02:20:15;8.07;;;3.10;;
73120;SDS011;61307;49.628;-1.624;2023-08-01T02:22:42;7.63;;;2.80;;
73120;SDS011;61307;49.628;-1.624;2023-08-01T02:25:10;6.25;;;3.00;;
73120;SDS011;61307;49.628;-1.624;2023-08-01T02:27:37;7.40;;;2.60;;
73120;SDS011;61307;49.628;-1.624;2023-08-01T02:30:07;6.30;;;2.80;;
73120;SDS011;61307;49.628;-1.624;2023-08-01T02:32:35;7.07;;;2.80;;
73120;SDS011;61307;49.628;-1.624;2023-08-01T02:35:03;10.02;;;2.95;;
73120;SDS011;61307;49.628;-1.624;2023-08-01T02:37:31;8.15;;;2.95;;
73120;SDS011;61307;49.628;-1.624;2023-08-01T02:39:59;7.32;;;2.78;;
73120;SDS011;61307;49.628;-1.624;2023-08-01T02:42:32;9.18;;;3.45;;
73120;SDS011;61307;49.628;-1.624;2023-08-01T02:45:00;10.18;;;3.60;;
73120;SDS011;61307;49.628;-1.624;2023-08-01T02:47:29;8.20;;;2.80;;
73120;SDS011;61307;49.628;-1.624;2023-08-01T02:49:56;6.90;;;3.05;;
73120;SDS011;61307;49.628;-1.624;2023-08-01T02:52:24;7.82;;;3.17;;
73120;SDS011;61307;49.628;-1.624;2023-08-01T02:54:51;9.68;;;3.33;;
73120;SDS011;61307;49.628;-1.624;2023-08-01T02:57:19;7.82;;;3.17;;
73120;SDS011;61307;49.628;-1.624;2023-08-01T02:59:52;8.20;;;3.25;;
73120;SDS011;61307;49.628;-1.624;2023-08-01T03:02:34;7.45;;;3.00;;
73120;SDS011;61307;49.628;-1.624;2023-08-01T03:05:08;8.98;;;3.13;;
73120;SDS011;61307;49.628;-1.624;2023-08-01T03:07:43;6.13;;;3.10;;
73120;SDS011;61307;49.628;-1.624;2023-08-01T03:10:10;7.30;;;3.15;;
73120;SDS011;61307;49.628;-1.624;2023-08-01T03:12:38;10.40;;;3.45;;
73120;SDS011;61307;49.628;-1.624;2023-08-01T03:15:06;9.35;;;3.30;;
73120;SDS011;61307;49.628;-1.624;2023-08-01T03:17:35;8.10;;;3.20;;
73120;SDS011;61307;49.628;-1.624;2023-08-01T03:20:12;10.52;;;3.10;;
73120;SDS011;61307;49.628;-1.624;2023-08-01T03:22:40;7.05;;;3.05;;
73120;SDS011;61307;49.628;-1.624;2023-08-01T03:25:08;6.47;;;3.33;;
73120;SDS011;61307;49.628;-1.624;2023-08-01T03:27:35;10.10;;;3.40;;
73120;SDS011;61307;49.628;-1.624;2023-08-01T03:30:03;5.88;;;2.58;;
73120;SDS011;61307;49.628;-1.624;2023-08-01T03:32:34;6.80;;;3.42;;
73120;SDS011;61307;49.628;-1.624;2023-08-01T03:35:03;12.48;;;3.33;;
73120;SDS011;61307;49.628;-1.624;2023-08-01T03:37:31;9.60;;;3.25;;
73120;SDS011;61307;49.628;-1.624;2023-08-01T03:39:59;7.95;;;3.22;;
73120;SDS011;61307;49.628;-1.624;2023-08-01T03:42:27;9.60;;;3.03;;
73120;SDS011;61307;49.628;-1.624;2023-08-01T03:44:54;9.77;;;3.40;;
73120;SDS011;61307;49.628;-1.624;2023-08-01T03:47:22;11.65;;;4.05;;
73120;SDS011;61307;49.628;-1.624;2023-08-01T03:49:51;8.05;;;3.30;;
73120;SDS011;61307;49.628;-1.624;2023-08-01T03:52:19;8.20;;;3.50;;
73120;SDS011;61307;49.628;-1.624;2023-08-01T03:54:48;10.88;;;3.70;;
73120;SDS011;61307;49.628;-1.624;2023-08-01T03:57:15;12.18;;;3.72;;
73120;SDS011;61307;49.628;-1.624;2023-08-01T03:59:43;8.30;;;3.72;;
73120;SDS011;61307;49.628;-1.624;2023-08-01T04:02:11;9.18;;;3.60;;
73120;SDS011;61307;49.628;-1.624;2023-08-01T04:04:38;11.35;;;3.75;;
73120;SDS011;61307;49.628;-1.624;2023-08-01T04:07:08;9.32;;;3.45;;
73120;SDS011;61307;49.628;-1.624;2023-08-01T04:09:36;11.15;;;3.40;;
73120;SDS011;61307;49.628;-1.624;2023-08-01T04:12:05;9.05;;;3.50;;
73120;SDS011;61307;49.628;-1.624;2023-08-01T04:14:33;8.75;;;3.20;;
73120;SDS011;61307;49.628;-1.624;2023-08-01T04:17:00;9.13;;;3.75;;
73120;SDS011;61307;49.628;-1.624;2023-08-01T04:19:28;8.35;;;3.13;;
73120;SDS011;61307;49.628;-1.624;2023-08-01T04:21:55;10.00;;;3.15;;
73120;SDS011;61307;49.628;-1.624;2023-08-01T04:24:24;9.57;;;3.25;;
73120;SDS011;61307;49.628;-1.624;2023-08-01T04:26:52;9.60;;;3.90;;
73120;SDS011;61307;49.628;-1.624;2023-08-01T04:29:20;8.07;;;3.25;;
73120;SDS011;61307;49.628;-1.624;2023-08-01T04:31:47;7.97;;;3.30;;
73120;SDS011;61307;49.628;-1.624;2023-08-01T04:34:18;8.00;;;3.25;;
73120;SDS011;61307;49.628;-1.624;2023-08-01T04:36:45;7.97;;;3.42;;
73120;SDS011;61307;49.628;-1.624;2023-08-01T04:39:13;12.82;;;3.55;;
73120;SDS011;61307;49.628;-1.624;2023-08-01T04:41:42;13.32;;;3.95;;
73120;SDS011;61307;49.628;-1.624;2023-08-01T04:44:10;9.15;;;3.88;;
73120;SDS011;61307;49.628;-1.624;2023-08-01T04:46:37;10.90;;;3.72;;
73120;SDS011;61307;49.628;-1.624;2023-08-01T04:49:05;7.43;;;3.30;;
73120;SDS011;61307;49.628;-1.624;2023-08-01T04:51:32;10.02;;;3.63;;
73120;SDS011;61307;49.628;-1.624;2023-08-01T04:54:00;13.13;;;3.67;;
73120;SDS011;61307;49.628;-1.624;2023-08-01T04:56:27;8.85;;;3.75;;
73120;SDS011;61307;49.628;-1.624;2023-08-01T04:58:56;12.52;;;3.90;;
73120;SDS011;61307;49.628;-1.624;2023-08-01T05:01:24;10.18;;;3.70;;
73120;SDS011;61307;49.628;-1.624;2023-08-01T05:03:52;9.20;;;3.88;;
73120;SDS011;61307;49.628;-1.624;2023-08-01T05:06:19;10.15;;;3.38;;
73120;SDS011;61307;49.628;-1.624;2023-08-01T05:08:47;8.18;;;3.38;;
73120;SDS011;61307;49.628;-1.624;2023-08-01T05:11:14;9.02;;;3.75;;
73120;SDS011;61307;49.628;-1.624;2023-08-01T05:13:42;9.65;;;3.45;;
73120;SDS011;61307;49.628;-1.624;2023-08-01T05:19:21;10.25;;;3.80;;
73120;SDS011;61307;49.628;-1.624;2023-08-01T05:21:48;10.18;;;4.00;;
73120;SDS011;61307;49.628;-1.624;2023-08-01T05:24:16;8.48;;;3.63;;
73120;SDS011;61307;49.628;-1.624;2023-08-01T05:26:43;11.57;;;3.42;;
73120;SDS011;61307;49.628;-1.624;2023-08-01T05:29:11;10.10;;;3.55;;
73120;SDS011;61307;49.628;-1.624;2023-08-01T05:31:39;10.15;;;3.67;;
73120;SDS011;61307;49.628;-1.624;2023-08-01T05:34:06;10.05;;;3.80;;
73120;SDS011;61307;49.628;-1.624;2023-08-01T05:36:34;6.88;;;3.10;;
73120;SDS011;61307;49.628;-1.624;2023-08-01T05:39:02;11.48;;;4.32;;
73120;SDS011;61307;49.628;-1.624;2023-08-01T05:41:30;8.98;;;3.42;;
73120;SDS011;61307;49.628;-1.624;2023-08-01T05:43:58;11.85;;;4.15;;
73120;SDS011;61307;49.628;-1.624;2023-08-01T05:46:26;10.55;;;3.65;;
73120;SDS011;61307;49.628;-1.624;2023-08-01T05:48:55;9.38;;;3.70;;
73120;SDS011;61307;49.628;-1.624;2023-08-01T05:51:25;8.77;;;3.50;;
73120;SDS011;61307;49.628;-1.624;2023-08-01T05:53:53;9.63;;;4.22;;
73120;SDS011;61307;49.628;-1.624;2023-08-01T05:56:21;11.45;;;3.53;;
73120;SDS011;61307;49.628;-1.624;2023-08-01T05:58:48;9.32;;;3.90;;
73120;SDS011;61307;49.628;-1.624;2023-08-01T06:01:16;9.75;;;3.70;;
73120;SDS011;61307;49.628;-1.624;2023-08-01T06:03:45;10.75;;;3.30;;
73120;SDS011;61307;49.628;-1.624;2023-08-01T06:06:14;11.63;;;3.85;;
73120;SDS011;61307;49.628;-1.624;2023-08-01T06:08:43;9.77;;;3.85;;
73120;SDS011;61307;49.628;-1.624;2023-08-01T06:11:11;10.18;;;3.78;;
73120;SDS011;61307;49.628;-1.624;2023-08-01T06:13:39;10.90;;;3.50;;
73120;SDS011;61307;49.628;-1.624;2023-08-01T06:16:06;10.32;;;3.40;;
73120;SDS011;61307;49.628;-1.624;2023-08-01T06:18:34;10.07;;;3.42;;
73120;SDS011;61307;49.628;-1.624;2023-08-01T06:21:01;9.43;;;3.30;;
73120;SDS011;61307;49.628;-1.624;2023-08-01T06:23:30;12.85;;;3.75;;
73120;SDS011;61307;49.628;-1.624;2023-08-01T06:25:58;8.75;;;3.47;;
73120;SDS011;61307;49.628;-1.624;2023-08-01T06:28:25;8.90;;;3.60;;
73120;SDS011;61307;49.628;-1.624;2023-08-01T06:30:53;10.13;;;3.90;;
73120;SDS011;61307;49.628;-1.624;2023-08-01T06:33:20;9.32;;;3.88;;
73120;SDS011;61307;49.628;-1.624;2023-08-01T06:35:48;10.75;;;4.00;;
73120;SDS011;61307;49.628;-1.624;2023-08-01T06:38:15;13.18;;;3.80;;
73120;SDS011;61307;49.628;-1.624;2023-08-01T06:40:44;9.10;;;3.78;;
73120;SDS011;61307;49.628;-1.624;2023-08-01T06:43:12;10.02;;;3.70;;
73120;SDS011;61307;49.628;-1.624;2023-08-01T06:45:40;8.77;;;3.30;;
73120;SDS011;61307;49.628;-1.624;2023-08-01T06:48:08;12.77;;;3.67;;
73120;SDS011;61307;49.628;-1.624;2023-08-01T06:50:35;8.75;;;3.80;;
73120;SDS011;61307;49.628;-1.624;2023-08-01T06:53:03;10.38;;;3.50;;
73120;SDS011;61307;49.628;-1.624;2023-08-01T06:55:32;8.90;;;3.45;;
73120;SDS011;61307;49.628;-1.624;2023-08-01T06:58:01;9.10;;;3.47;;
73120;SDS011;61307;49.628;-1.624;2023-08-01T07:00:29;8.50;;;3.38;;
73120;SDS011;61307;49.628;-1.624;2023-08-01T07:02:57;13.13;;;4.13;;
73120;SDS011;61307;49.628;-1.624;2023-08-01T07:05:27;9.18;;;3.80;;
73120;SDS011;61307;49.628;-1.624;2023-08-01T07:08:08;13.65;;;4.22;;
73120;SDS011;61307;49.628;-1.624;2023-08-01T07:10:38;10.85;;;3.38;;
73120;SDS011;61307;49.628;-1.624;2023-08-01T07:13:08;11.68;;;3.55;;
73120;SDS011;61307;49.628;-1.624;2023-08-01T07:15:37;10.60;;;3.80;;
73120;SDS011;61307;49.628;-1.624;2023-08-01T07:19:02;9.20;;;3.53;;
73120;SDS011;61307;49.628;-1.624;2023-08-01T07:24:09;6.68;;;3.40;;
73120;SDS011;61307;49.628;-1.624;2023-08-01T07:26:39;8.70;;;3.60;;
73120;SDS011;61307;49.628;-1.624;2023-08-01T07:29:09;12.30;;;3.78;;
73120;SDS011;61307;49.628;-1.624;2023-08-01T07:31:43;12.70;;;3.65;;
73120;SDS011;61307;49.628;-1.624;2023-08-01T07:34:20;8.77;;;3.42;;
73120;SDS011;61307;49.628;-1.624;2023-08-01T07:36:48;11.65;;;4.13;;
73120;SDS011;61307;49.628;-1.624;2023-08-01T07:39:16;9.45;;;3.78;;
73120;SDS011;61307;49.628;-1.624;2023-08-01T07:41:47;9.63;;;3.03;;
73120;SDS011;61307;49.628;-1.624;2023-08-01T07:44:16;11.25;;;3.17;;
73120;SDS011;61307;49.628;-1.624;2023-08-01T07:46:44;10.10;;;3.83;;
73120;SDS011;61307;49.628;-1.624;2023-08-01T07:49:11;10.38;;;3.90;;
73120;SDS011;61307;49.628;-1.624;2023-08-01T07:51:39;10.27;;;4.00;;
73120;SDS011;61307;49.628;-1.624;2023-08-01T07:54:06;10.02;;;3.53;;
73120;SDS011;61307;49.628;-1.624;2023-08-01T07:56:33;11.65;;;4.03;;
73120;SDS011;61307;49.628;-1.624;2023-08-01T07:59:00;10.70;;;3.70;;
73120;SDS011;61307;49.628;-1.624;2023-08-01T08:01:29;11.45;;;3.80;;
73120;SDS011;61307;49.628;-1.624;2023-08-01T08:03:56;6.55;;;2.90;;
73120;SDS011;61307;49.628;-1.624;2023-08-01T08:06:23;11.05;;;3.17;;
73120;SDS011;61307;49.628;-1.624;2023-08-01T08:08:50;12.63;;;4.03;;
73120;SDS011;61307;49.628;-1.624;2023-08-01T08:11:17;11.00;;;3.65;;
73120;SDS011;61307;49.628;-1.624;2023-08-01T08:13:44;12.95;;;3.92;;
73120;SDS011;61307;49.628;-1.624;2023-08-01T08:16:13;10.70;;;3.97;;
73120;SDS011;61307;49.628;-1.624;2023-08-01T08:18:41;13.40;;;4.05;;
73120;SDS011;61307;49.628;-1.624;2023-08-01T08:21:11;9.75;;;3.50;;
73120;SDS011;61307;49.628;-1.624;2023-08-01T08:24:01;12.07;;;3.55;;
73120;SDS011;61307;49.628;-1.624;2023-08-01T08:26:29;10.32;;;3.30;;
73120;SDS011;61307;49.628;-1.624;2023-08-01T08:28:56;10.50;;;3.78;;
73120;SDS011;61307;49.628;-1.624;2023-08-01T08:31:24;14.88;;;4.13;;
73120;SDS011;61307;49.628;-1.624;2023-08-01T08:33:52;14.10;;;4.18;;
73120;SDS011;61307;49.628;-1.624;2023-08-01T08:39:41;8.82;;;3.53;;
73120;SDS011;61307;49.628;-1.624;2023-08-01T08:42:11;10.05;;;3.55;;
73120;SDS011;61307;49.628;-1.624;2023-08-01T08:44:41;8.27;;;3.40;;
73120;SDS011;61307;49.628;-1.624;2023-08-01T08:47:35;8.00;;;3.10;;
73120;SDS011;61307;49.628;-1.624;2023-08-01T08:53:42;9.45;;;3.45;;
73120;SDS011;61307;49.628;-1.624;2023-08-01T08:56:11;9.63;;;3.50;;
73120;SDS011;61307;49.628;-1.624;2023-08-01T09:01:22;7.07;;;3.08;;
73120;SDS011;61307;49.628;-1.624;2023-08-01T09:03:50;8.13;;;3.20;;
73120;SDS011;61307;49.628;-1.624;2023-08-01T09:06:19;9.52;;;3.40;;
73120;SDS011;61307;49.628;-1.624;2023-08-01T09:08:55;7.22;;;3.15;;
73120;SDS011;61307;49.628;-1.624;2023-08-01T09:11:27;12.35;;;3.38;;
73120;SDS011;61307;49.628;-1.624;2023-08-01T09:13:55;11.95;;;3.53;;
73120;SDS011;61307;49.628;-1.624;2023-08-01T09:16:24;7.45;;;3.28;;
73120;SDS011;61307;49.628;-1.624;2023-08-01T09:18:52;10.60;;;3.50;;
73120;SDS011;61307;49.628;-1.624;2023-08-01T09:21:25;10.95;;;3.47;;
73120;SDS011;61307;49.628;-1.624;2023-08-01T09:27:04;8.90;;;3.40;;
73120;SDS011;61307;49.628;-1.624;2023-08-01T09:29:33;9.50;;;3.47;;
73120;SDS011;61307;49.628;-1.624;2023-08-01T09:32:10;8.13;;;3.45;;
73120;SDS011;61307;49.628;-1.624;2023-08-01T09:34:40;9.45;;;3.45;;
73120;SDS011;61307;49.628;-1.624;2023-08-01T09:37:17;5.82;;;3.22;;
73120;SDS011;61307;49.628;-1.624;2023-08-01T09:39:46;10.00;;;3.35;;
73120;SDS011;61307;49.628;-1.624;2023-08-01T09:43:04;10.02;;;3.30;;
73120;SDS011;61307;49.628;-1.624;2023-08-01T09:45:27;9.27;;;3.50;;
73120;SDS011;61307;49.628;-1.624;2023-08-01T09:47:55;10.07;;;3.47;;
73120;SDS011;61307;49.628;-1.624;2023-08-01T09:50:23;9.70;;;3.80;;
73120;SDS011;61307;49.628;-1.624;2023-08-01T09:56:14;10.07;;;3.58;;
73120;SDS011;61307;49.628;-1.624;2023-08-01T09:58:55;9.23;;;3.63;;
73120;SDS011;61307;49.628;-1.624;2023-08-01T10:01:23;9.25;;;3.42;;
73120;SDS011;61307;49.628;-1.624;2023-08-01T10:10:37;9.02;;;3.30;;
73120;SDS011;61307;49.628;-1.624;2023-08-01T10:13:30;7.97;;;3.40;;
73120;SDS011;61307;49.628;-1.624;2023-08-01T10:15:59;12.85;;;3.38;;
73120;SDS011;61307;49.628;-1.624;2023-08-01T10:18:27;8.70;;;3.50;;
73120;SDS011;61307;49.628;-1.624;2023-08-01T10:20:56;7.07;;;3.17;;
73120;SDS011;61307;49.628;-1.624;2023-08-01T10:23:38;8.52;;;3.47;;
73120;SDS011;61307;49.628;-1.624;2023-08-01T10:26:06;8.05;;;3.65;;
73120;SDS011;61307;49.628;-1.624;2023-08-01T10:28:40;5.85;;;3.17;;
73120;SDS011;61307;49.628;-1.624;2023-08-01T10:31:09;7.88;;;3.40;;
73120;SDS011;61307;49.628;-1.624;2023-08-01T10:33:44;7.50;;;3.28;;
73120;SDS011;61307;49.628;-1.624;2023-08-01T10:36:12;11.15;;;3.97;;
73120;SDS011;61307;49.628;-1.624;2023-08-01T10:38:47;10.65;;;3.85;;
73120;SDS011;61307;49.628;-1.624;2023-08-01T10:41:19;8.30;;;3.80;;
73120;SDS011;61307;49.628;-1.624;2023-08-01T10:43:49;7.38;;;3.80;;
73120;SDS011;61307;49.628;-1.624;2023-08-01T10:46:18;9.13;;;3.10;;
73120;SDS011;61307;49.628;-1.624;2023-08-01T10:48:49;8.15;;;3.70;;
73120;SDS011;61307;49.628;-1.624;2023-08-01T10:51:18;9.80;;;4.00;;
73120;SDS011;61307;49.628;-1.624;2023-08-01T10:53:45;10.73;;;3.90;;
73120;SDS011;61307;49.628;-1.624;2023-08-01T10:56:17;8.10;;;3.70;;
73120;SDS011;61307;49.628;-1.624;2023-08-01T10:58:45;9.88;;;3.70;;
73120;SDS011;61307;49.628;-1.624;2023-08-01T11:01:14;9.00;;;3.78;;
73120;SDS011;61307;49.628;-1.624;2023-08-01T11:03:54;7.78;;;3.60;;
73120;SDS011;61307;49.628;-1.624;2023-08-01T11:06:21;8.75;;;3.75;;
73120;SDS011;61307;49.628;-1.624;2023-08-01T11:08:48;9.20;;;3.30;;
73120;SDS011;61307;49.628;-1.624;2023-08-01T11:11:16;8.98;;;3.45;;
73120;SDS011;61307;49.628;-1.624;2023-08-01T11:13:49;9.93;;;3.70;;
73120;SDS011;61307;49.628;-1.624;2023-08-01T11:16:30;10.52;;;4.05;;
73120;SDS011;61307;49.628;-1.624;2023-08-01T11:18:58;9.20;;;3.80;;
73120;SDS011;61307;49.628;-1.624;2023-08-01T11:21:25;8.68;;;3.67;;
73120;SDS011;61307;49.628;-1.624;2023-08-01T11:23:53;7.32;;;3.78;;
73120;SDS011;61307;49.628;-1.624;2023-08-01T11:26:21;10.07;;;4.10;;
73120;SDS011;61307;49.628;-1.624;2023-08-01T11:28:48;10.50;;;3.80;;
73120;SDS011;61307;49.628;-1.624;2023-08-01T11:31:16;9.73;;;4.13;;
73120;SDS011;61307;49.628;-1.624;2023-08-01T11:33:54;11.05;;;4.10;;
73120;SDS011;61307;49.628;-1.624;2023-08-01T11:36:58;6.65;;;3.50;;
73120;SDS011;61307;49.628;-1.624;2023-08-01T11:39:35;8.23;;;3.38;;
73120;SDS011;61307;49.628;-1.624;2023-08-01T11:42:31;6.25;;;3.65;;
73120;SDS011;61307;49.628;-1.624;2023-08-01T11:45:10;10.43;;;3.75;;
73120;SDS011;61307;49.628;-1.624;2023-08-01T11:47:55;10.00;;;4.13;;
73120;SDS011;61307;49.628;-1.624;2023-08-01T11:50:33;8.32;;;3.83;;
73120;SDS011;61307;49.628;-1.624;2023-08-01T11:53:01;6.53;;;3.80;;
73120;SDS011;61307;49.628;-1.624;2023-08-01T11:55:28;11.73;;;4.15;;
73120;SDS011;61307;49.628;-1.624;2023-08-01T11:57:56;12.80;;;4.00;;
73120;SDS011;61307;49.628;-1.624;2023-08-01T12:00:24;13.25;;;3.88;;
73120;SDS011;61307;49.628;-1.624;2023-08-01T12:03:02;10.63;;;3.97;;
73120;SDS011;61307;49.628;-1.624;2023-08-01T12:05:46;9.32;;;4.00;;
73120;SDS011;61307;49.628;-1.624;2023-08-01T12:08:13;7.65;;;3.33;;
73120;SDS011;61307;49.628;-1.624;2023-08-01T12:10:45;7.88;;;3.80;;
73120;SDS011;61307;49.628;-1.624;2023-08-01T12:13:19;11.55;;;3.95;;
73120;SDS011;61307;49.628;-1.624;2023-08-01T12:18:46;12.02;;;4.35;;
73120;SDS011;61307;49.628;-1.624;2023-08-01T12:21:15;11.68;;;4.57;;
73120;SDS011;61307;49.628;-1.624;2023-08-01T12:23:45;9.82;;;3.75;;
73120;SDS011;61307;49.628;-1.624;2023-08-01T12:26:15;8.75;;;3.67;;
73120;SDS011;61307;49.628;-1.624;2023-08-01T12:28:56;11.02;;;4.00;;
73120;SDS011;61307;49.628;-1.624;2023-08-01T12:31:25;9.15;;;3.53;;
73120;SDS011;61307;49.628;-1.624;2023-08-01T12:33:53;9.73;;;3.53;;
73120;SDS011;61307;49.628;-1.624;2023-08-01T12:36:21;7.07;;;3.58;;
73120;SDS011;61307;49.628;-1.624;2023-08-01T12:38:49;10.63;;;3.60;;
73120;SDS011;61307;49.628;-1.624;2023-08-01T12:41:29;16.15;;;4.43;;
73120;SDS011;61307;49.628;-1.624;2023-08-01T12:44:06;8.48;;;3.75;;
73120;SDS011;61307;49.628;-1.624;2023-08-01T12:46:33;8.80;;;3.83;;
73120;SDS011;61307;49.628;-1.624;2023-08-01T12:49:11;7.07;;;3.70;;
73120;SDS011;61307;49.628;-1.624;2023-08-01T12:51:42;9.15;;;3.72;;
73120;SDS011;61307;49.628;-1.624;2023-08-01T12:54:09;9.50;;;3.42;;
73120;SDS011;61307;49.628;-1.624;2023-08-01T12:56:37;10.55;;;3.85;;
73120;SDS011;61307;49.628;-1.624;2023-08-01T12:59:06;8.70;;;3.42;;
73120;SDS011;61307;49.628;-1.624;2023-08-01T13:01:34;12.15;;;3.75;;
73120;SDS011;61307;49.628;-1.624;2023-08-01T13:04:02;12.77;;;4.93;;
73120;SDS011;61307;49.628;-1.624;2023-08-01T13:06:31;12.60;;;8.15;;
73120;SDS011;61307;49.628;-1.624;2023-08-01T13:09:02;15.77;;;9.93;;
73120;SDS011;61307;49.628;-1.624;2023-08-01T13:11:32;23.58;;;14.32;;
73120;SDS011;61307;49.628;-1.624;2023-08-01T13:13:59;16.55;;;12.23;;
73120;SDS011;61307;49.628;-1.624;2023-08-01T13:16:26;18.25;;;14.05;;
73120;SDS011;61307;49.628;-1.624;2023-08-01T13:18:54;51.03;;;36.17;;
73120;SDS011;61307;49.628;-1.624;2023-08-01T13:21:21;48.75;;;33.55;;
73120;SDS011;61307;49.628;-1.624;2023-08-01T13:27:15;44.83;;;33.90;;
73120;SDS011;61307;49.628;-1.624;2023-08-01T13:29:42;35.67;;;23.75;;
73120;SDS011;61307;49.628;-1.624;2023-08-01T13:32:10;34.28;;;21.80;;
73120;SDS011;61307;49.628;-1.624;2023-08-01T13:34:37;32.22;;;19.95;;
73120;SDS011;61307;49.628;-1.624;2023-08-01T13:37:05;25.77;;;17.75;;
73120;SDS011;61307;49.628;-1.624;2023-08-01T13:39:34;22.70;;;16.30;;
73120;SDS011;61307;49.628;-1.624;2023-08-01T13:42:21;22.15;;;15.05;;
73120;SDS011;61307;49.628;-1.624;2023-08-01T13:44:49;24.65;;;17.90;;
73120;SDS011;61307;49.628;-1.624;2023-08-01T13:47:28;30.73;;;20.23;;
73120;SDS011;61307;49.628;-1.624;2023-08-01T13:49:56;25.85;;;19.75;;
73120;SDS011;61307;49.628;-1.624;2023-08-01T13:52:23;27.30;;;21.92;;
73120;SDS011;61307;49.628;-1.624;2023-08-01T13:54:53;91.72;;;56.60;;
73120;SDS011;61307;49.628;-1.624;2023-08-01T13:57:22;80.30;;;53.47;;
73120;SDS011;61307;49.628;-1.624;2023-08-01T13:59:50;56.55;;;41.97;;
73120;SDS011;61307;49.628;-1.624;2023-08-01T14:02:18;49.65;;;33.97;;
73120;SDS011;61307;49.628;-1.624;2023-08-01T14:05:26;41.75;;;28.70;;
73120;SDS011;61307;49.628;-1.624;2023-08-01T14:11:12;32.17;;;22.27;;
73120;SDS011;61307;49.628;-1.624;2023-08-01T14:13:44;31.75;;;20.23;;
73120;SDS011;61307;49.628;-1.624;2023-08-01T14:16:20;31.92;;;19.50;;
73120;SDS011;61307;49.628;-1.624;2023-08-01T14:18:48;29.30;;;17.92;;
73120;SDS011;61307;49.628;-1.624;2023-08-01T14:21:37;28.77;;;18.02;;
73120;SDS011;61307;49.628;-1.624;2023-08-01T14:24:05;24.45;;;16.00;;
73120;SDS011;61307;49.628;-1.624;2023-08-01T14:27:13;24.95;;;16.25;;
73120;SDS011;61307;49.628;-1.624;2023-08-01T14:29:55;25.92;;;14.23;;
73120;SDS011;61307;49.628;-1.624;2023-08-01T14:32:30;24.13;;;14.05;;
73120;SDS011;61307;49.628;-1.624;2023-08-01T14:34:58;25.45;;;13.95;;
73120;SDS011;61307;49.628;-1.624;2023-08-01T14:37:33;22.65;;;13.52;;
73120;SDS011;61307;49.628;-1.624;2023-08-01T14:42:57;17.25;;;11.93;;
73120;SDS011;61307;49.628;-1.624;2023-08-01T14:45:25;23.52;;;11.45;;
73120;SDS011;61307;49.628;-1.624;2023-08-01T14:48:15;20.75;;;12.63;;
73120;SDS011;61307;49.628;-1.624;2023-08-01T14:51:00;20.48;;;10.95;;
73120;SDS011;61307;49.628;-1.624;2023-08-01T14:53:40;17.80;;;11.15;;
73120;SDS011;61307;49.628;-1.624;2023-08-01T14:56:08;18.92;;;11.20;;
73120;SDS011;61307;49.628;-1.624;2023-08-01T15:01:52;16.63;;;9.60;;
73120;SDS011;61307;49.628;-1.624;2023-08-01T15:04:19;17.42;;;9.85;;
73120;SDS011;61307;49.628;-1.624;2023-08-01T15:06:47;17.90;;;9.80;;
73120;SDS011;61307;49.628;-1.624;2023-08-01T15:09:14;19.55;;;9.98;;
73120;SDS011;61307;49.628;-1.624;2023-08-01T15:11:42;17.40;;;9.20;;
73120;SDS011;61307;49.628;-1.624;2023-08-01T15:14:09;16.98;;;9.27;;
73120;SDS011;61307;49.628;-1.624;2023-08-01T15:16:36;16.15;;;8.98;;
73120;SDS011;61307;49.628;-1.624;2023-08-01T15:19:29;18.48;;;7.70;;
73120;SDS011;61307;49.628;-1.624;2023-08-01T15:22:43;15.77;;;7.95;;
73120;SDS011;61307;49.628;-1.624;2023-08-01T15:25:24;15.18;;;7.75;;
73120;SDS011;61307;49.628;-1.624;2023-08-01T15:28:08;14.60;;;7.80;;
73120;SDS011;61307;49.628;-1.624;2023-08-01T15:33:42;15.35;;;7.45;;
73120;SDS011;61307;49.628;-1.624;2023-08-01T15:36:13;13.95;;;6.90;;
73120;SDS011;61307;49.628;-1.624;2023-08-01T15:38:56;12.68;;;6.82;;